Time;durP1;ratioP1;P1;durP2;ratioP2;P2;SDS_P1;SDS_P2;PMS_P1;PMS_P2;Temp;Humidity;BMP_temperature;BMP_pressure;BME280_temperature;BME280_humidity;BME280_pressure;Samples;Min_cycle;Max_cycle;Signal;HPM_P1;HPM_P2
2020/12/11 00:02:07;;;;;;;20.30;2.22;;;9.80;99.90;;;;;;5067977;28;20134;-59
2020/12/11 00:04:33;;;;;;;23.83;2.38;;;9.90;99.90;;;;;;5067174;28;20041;-58
2020/12/11 00:06:59;;;;;;;17.67;2.22;;;9.80;99.90;;;;;;5068134;28;20632;-58
2020/12/11 00:09:26;;;;;;;13.50;1.95;;;9.80;99.90;;;;;;5067062;28;20596;-57
2020/12/11 00:11:56;;;;;;;20.67;2.25;;;9.80;99.90;;;;;;5066775;28;20020;-55
2020/12/11 00:14:21;;;;;;;17.63;2.45;;;9.80;99.90;;;;;;5066082;28;20130;-54
2020/12/11 00:16:47;;;;;;;15.52;2.28;;;9.80;99.90;;;;;;5066766;28;20123;-52
2020/12/11 00:19:13;;;;;;;31.23;2.97;;;9.70;99.90;;;;;;5066399;28;20032;-53
2020/12/11 00:21:40;;;;;;;27.23;2.90;;;9.70;99.90;;;;;;5066185;28;20060;-54
2020/12/11 00:24:08;;;;;;;20.55;2.58;;;9.80;99.90;;;;;;5066045;28;20033;-52
2020/12/11 00:26:34;;;;;;;23.02;3.13;;;9.80;99.90;;;;;;5066877;28;20036;-52
2020/12/11 00:29:06;;;;;;;24.90;3.00;;;9.90;99.90;;;;;;5080190;28;20043;-53
2020/12/11 00:31:32;;;;;;;27.63;2.80;;;9.90;99.90;;;;;;5088495;28;20032;-52
2020/12/11 00:33:59;;;;;;;22.80;3.08;;;9.90;99.90;;;;;;5084229;28;20036;-50
2020/12/11 00:36:25;;;;;;;44.97;3.85;;;9.90;99.90;;;;;;5067518;28;20043;-54
2020/12/11 00:38:55;;;;;;;30.02;3.88;;;9.80;99.90;;;;;;5058906;28;20142;-54
2020/12/11 00:41:20;;;;;;;36.40;3.78;;;9.80;99.90;;;;;;5067490;28;20683;-52
2020/12/11 00:43:46;;;;;;;36.35;4.70;;;9.90;99.90;;;;;;5067404;28;20042;-51
2020/12/11 00:46:13;;;;;;;36.80;4.57;;;9.90;99.90;;;;;;5067202;28;20028;-54
2020/12/11 00:48:39;;;;;;;59.17;5.50;;;9.80;99.90;;;;;;5067010;28;20045;-51
2020/12/11 00:51:05;;;;;;;43.55;5.65;;;9.90;99.90;;;;;;5067702;28;20032;-55
2020/12/11 00:53:31;;;;;;;32.20;3.90;;;9.80;99.90;;;;;;5066413;28;20021;-53
2020/12/11 00:55:57;;;;;;;52.92;5.53;;;9.80;99.90;;;;;;5066813;28;20044;-51
2020/12/11 00:58:22;;;;;;;51.67;5.70;;;9.80;99.90;;;;;;5066861;28;20028;-54
2020/12/11 01:00:48;;;;;;;52.28;5.40;;;9.80;99.90;;;;;;5066922;28;20067;-55
2020/12/11 01:03:13;;;;;;;73.60;7.25;;;9.90;99.90;;;;;;5067076;28;20029;-55
2020/12/11 01:05:39;;;;;;;37.08;5.80;;;9.90;99.90;;;;;;5069197;28;20379;-53
2020/12/11 01:08:06;;;;;;;38.20;5.07;;;9.80;99.90;;;;;;5048810;28;20493;-52
2020/12/11 01:10:33;;;;;;;62.00;6.25;;;9.80;99.90;;;;;;5069649;28;20118;-57
2020/12/11 01:12:59;;;;;;;44.42;5.35;;;9.80;99.90;;;;;;5073525;28;20441;-55
2020/12/11 01:15:25;;;;;;;39.83;5.18;;;9.70;99.90;;;;;;5070117;28;20032;-55
2020/12/11 01:17:51;;;;;;;37.38;5.18;;;9.70;99.90;;;;;;5070817;28;20047;-55
2020/12/11 01:20:17;;;;;;;37.33;4.55;;;9.70;99.90;;;;;;5070591;28;20032;-54
2020/12/11 01:22:42;;;;;;;36.05;4.55;;;9.70;99.90;;;;;;5070524;28;20028;-56
2020/12/11 01:25:09;;;;;;;35.33;3.25;;;9.70;99.90;;;;;;5071006;28;20041;-54
2020/12/11 01:27:34;;;;;;;49.92;4.43;;;9.70;99.90;;;;;;5070847;28;20505;-56
2020/12/11 01:30:00;;;;;;;31.88;5.15;;;9.70;99.90;;;;;;5070513;28;20024;-55
2020/12/11 01:32:25;;;;;;;47.45;5.65;;;9.70;99.90;;;;;;5070741;28;20029;-59
2020/12/11 01:34:51;;;;;;;41.60;4.35;;;9.70;99.90;;;;;;5070369;28;20059;-56
2020/12/11 01:37:17;;;;;;;44.30;4.45;;;9.70;99.90;;;;;;5070482;28;20689;-55
2020/12/11 01:39:42;;;;;;;45.38;5.55;;;9.80;99.90;;;;;;5070284;28;20044;-54
2020/12/11 01:42:12;;;;;;;38.35;4.47;;;9.80;99.90;;;;;;5070685;28;20036;-57
2020/12/11 01:44:47;;;;;;;56.38;5.78;;;9.80;99.90;;;;;;5070149;28;20064;-56
2020/12/11 01:47:13;;;;;;;29.23;4.18;;;9.80;99.90;;;;;;5070079;28;20033;-58
2020/12/11 01:49:39;;;;;;;39.67;5.68;;;9.80;99.90;;;;;;5070200;28;20054;-60
2020/12/11 01:52:05;;;;;;;31.10;4.97;;;9.80;99.90;;;;;;5070251;28;20036;-59
2020/12/11 01:54:31;;;;;;;39.55;5.35;;;9.80;99.90;;;;;;5069737;28;20703;-55
2020/12/11 01:57:21;;;;;;;55.53;5.47;;;9.80;99.90;;;;;;5069830;28;20423;-57
2020/12/11 01:59:50;;;;;;;45.80;4.82;;;9.80;99.90;;;;;;5028366;28;20036;-58
2020/12/11 02:02:18;;;;;;;49.33;5.38;;;9.80;99.90;;;;;;5069566;28;20454;-59
2020/12/11 02:04:44;;;;;;;57.03;5.65;;;9.80;99.90;;;;;;5069196;28;20039;-59
2020/12/11 02:07:10;;;;;;;40.78;4.95;;;9.80;99.90;;;;;;5051479;28;20048;-57
2020/12/11 02:09:38;;;;;;;61.45;5.18;;;9.80;99.90;;;;;;5070091;28;20036;-56
2020/12/11 02:12:04;;;;;;;47.97;4.88;;;9.80;99.90;;;;;;5069749;28;20138;-57
2020/12/11 02:14:30;;;;;;;60.33;5.43;;;9.80;99.90;;;;;;5069685;28;20047;-58
2020/12/11 02:16:57;;;;;;;34.97;4.20;;;9.80;99.90;;;;;;5069719;28;20106;-57
2020/12/11 02:19:25;;;;;;;56.90;6.18;;;9.90;99.90;;;;;;5069590;28;20037;-58
2020/12/11 02:21:51;;;;;;;51.65;6.40;;;9.90;99.90;;;;;;5069065;28;20053;-59
2020/12/11 02:24:17;;;;;;;33.28;5.43;;;9.80;99.90;;;;;;5069238;28;20040;-57
2020/12/11 02:26:43;;;;;;;54.13;5.95;;;9.80;99.90;;;;;;5051161;28;20493;-58
2020/12/11 02:29:09;;;;;;;65.38;7.07;;;9.80;99.90;;;;;;5068666;28;20037;-58
2020/12/11 02:31:35;;;;;;;43.40;4.28;;;9.80;99.90;;;;;;5071483;28;20497;-59
2020/12/11 02:34:01;;;;;;;36.22;4.95;;;9.80;99.90;;;;;;5086687;28;20111;-57
2020/12/11 02:36:27;;;;;;;38.47;5.00;;;9.80;99.90;;;;;;5088770;28;20140;-59
2020/12/11 02:38:52;;;;;;;45.10;4.53;;;9.80;99.90;;;;;;5075521;28;20470;-59
2020/12/11 02:41:18;;;;;;;45.45;5.22;;;9.80;99.90;;;;;;5069293;28;20029;-59
2020/12/11 02:43:44;;;;;;;32.53;4.30;;;9.80;99.90;;;;;;5071364;28;20019;-60
2020/12/11 02:46:10;;;;;;;44.20;5.80;;;9.80;99.90;;;;;;5100427;28;20961;-59
2020/12/11 02:48:35;;;;;;;39.17;5.75;;;9.80;99.90;;;;;;5108979;28;20750;-59
2020/12/11 02:51:01;;;;;;;44.63;4.68;;;9.80;99.90;;;;;;5110598;28;20035;-58
2020/12/11 02:53:27;;;;;;;41.28;5.40;;;9.90;99.90;;;;;;5110403;28;20115;-57
2020/12/11 02:55:53;;;;;;;19.90;3.42;;;9.90;99.90;;;;;;5090474;28;20827;-57
2020/12/11 02:58:18;;;;;;;42.78;3.95;;;9.90;99.90;;;;;;5089996;28;20032;-58
2020/12/11 03:00:44;;;;;;;44.58;4.10;;;9.90;99.90;;;;;;5089915;28;20033;-56
2020/12/11 03:03:10;;;;;;;38.72;5.47;;;9.90;99.90;;;;;;5084655;28;20021;-58
2020/12/11 03:05:35;;;;;;;41.13;4.80;;;9.90;99.90;;;;;;5070195;28;20033;-58
2020/12/11 03:08:01;;;;;;;60.20;6.25;;;9.90;99.90;;;;;;5069559;28;20047;-59
2020/12/11 03:10:26;;;;;;;33.28;4.10;;;10.00;99.90;;;;;;5070581;28;20051;-59
2020/12/11 03:12:52;;;;;;;35.75;4.10;;;10.00;99.90;;;;;;5088300;28;20035;-58
2020/12/11 03:15:18;;;;;;;36.88;4.30;;;9.90;99.90;;;;;;5089747;28;20396;-60
2020/12/11 03:17:44;;;;;;;48.28;5.28;;;10.00;99.90;;;;;;5088880;28;20035;-59
2020/12/11 03:20:09;;;;;;;46.17;6.70;;;9.90;99.90;;;;;;5089816;28;20032;-59
2020/12/11 03:22:35;;;;;;;49.15;3.97;;;10.00;99.90;;;;;;5089884;28;20040;-59
2020/12/11 03:25:02;;;;;;;30.85;4.72;;;10.00;99.90;;;;;;5089757;28;20036;-60
2020/12/11 03:27:28;;;;;;;46.10;3.83;;;10.00;99.90;;;;;;5088988;28;20036;-58
2020/12/11 03:29:53;;;;;;;39.40;4.15;;;10.00;99.90;;;;;;5088880;28;20024;-57
2020/12/11 03:32:19;;;;;;;30.50;4.85;;;10.00;99.90;;;;;;5089099;28;20072;-58
2020/12/11 03:34:45;;;;;;;51.63;4.63;;;10.10;99.90;;;;;;5070254;28;20024;-58
2020/12/11 03:37:11;;;;;;;43.90;4.85;;;10.10;99.90;;;;;;5089485;28;20071;-57
2020/12/11 03:39:37;;;;;;;35.50;4.45;;;10.10;99.90;;;;;;5088490;28;20035;-58
2020/12/11 03:42:02;;;;;;;24.60;2.95;;;10.10;99.90;;;;;;5108849;28;20039;-58
2020/12/11 03:44:29;;;;;;;25.23;3.03;;;10.10;99.90;;;;;;5101605;28;20035;-60
2020/12/11 03:46:55;;;;;;;28.45;3.25;;;10.10;99.90;;;;;;5109099;28;20074;-57
2020/12/11 03:49:22;;;;;;;27.55;3.22;;;10.10;99.90;;;;;;5108754;28;20111;-56
2020/12/11 03:51:52;;;;;;;39.58;3.85;;;10.10;99.90;;;;;;5109936;28;20417;-57
2020/12/11 03:54:18;;;;;;;30.85;2.95;;;10.10;99.90;;;;;;5109725;28;20069;-59
2020/12/11 03:56:43;;;;;;;36.50;3.35;;;10.10;99.90;;;;;;5109674;28;20555;-59
2020/12/11 03:59:09;;;;;;;29.27;4.28;;;10.10;99.90;;;;;;5109429;28;20051;-57
2020/12/11 04:01:35;;;;;;;29.92;2.97;;;10.00;99.90;;;;;;5109599;28;20032;-59
2020/12/11 04:04:00;;;;;;;22.83;2.90;;;10.00;99.90;;;;;;5109235;28;20079;-59
2020/12/11 04:06:26;;;;;;;22.52;3.13;;;10.00;99.90;;;;;;5098238;28;20061;-58
2020/12/11 04:08:51;;;;;;;42.67;3.42;;;10.00;99.90;;;;;;5087928;28;20044;-59
2020/12/11 04:11:17;;;;;;;37.50;4.40;;;10.00;99.90;;;;;;5089294;28;20482;-56
2020/12/11 04:13:42;;;;;;;43.70;5.53;;;10.10;99.90;;;;;;5088132;28;20028;-56
2020/12/11 04:16:11;;;;;;;34.33;3.85;;;10.10;99.90;;;;;;5070859;28;20024;-57
2020/12/11 04:18:37;;;;;;;35.70;3.85;;;10.10;99.90;;;;;;5088385;28;20727;-56
2020/12/11 04:21:03;;;;;;;26.35;3.22;;;10.10;99.90;;;;;;5088404;28;20079;-57
2020/12/11 04:23:28;;;;;;;23.83;2.60;;;10.10;99.90;;;;;;5087921;28;20032;-57
2020/12/11 04:25:55;;;;;;;27.13;2.95;;;10.10;99.90;;;;;;5085226;28;20028;-57
2020/12/11 04:28:22;;;;;;;30.13;3.42;;;10.10;99.90;;;;;;5086671;28;20122;-55
2020/12/11 04:30:48;;;;;;;27.45;3.45;;;10.20;99.90;;;;;;5069502;28;20549;-57
2020/12/11 04:33:14;;;;;;;23.42;2.70;;;10.20;99.90;;;;;;5088055;28;20121;-56
2020/12/11 04:35:39;;;;;;;33.80;3.33;;;10.10;99.90;;;;;;5081058;28;20077;-57
2020/12/11 04:38:05;;;;;;;35.22;2.95;;;10.20;99.90;;;;;;5087637;28;20047;-55
2020/12/11 04:40:31;;;;;;;30.25;3.33;;;10.20;99.90;;;;;;5088066;28;20061;-56
2020/12/11 04:42:58;;;;;;;31.20;3.67;;;10.20;99.90;;;;;;5062532;28;20408;-57
2020/12/11 04:45:24;;;;;;;23.83;2.67;;;10.20;99.90;;;;;;5090781;28;20512;-56
2020/12/11 04:47:50;;;;;;;22.80;2.65;;;10.20;99.90;;;;;;5091037;28;20058;-56
2020/12/11 04:50:18;;;;;;;25.40;2.85;;;10.20;99.90;;;;;;5099536;28;20233;-56
2020/12/11 04:52:47;;;;;;;26.75;3.58;;;10.20;99.90;;;;;;5111055;28;20096;-56
2020/12/11 04:55:18;;;;;;;32.17;2.95;;;10.20;99.90;;;;;;5111245;28;20059;-54
2020/12/11 04:57:45;;;;;;;18.73;3.63;;;10.20;99.90;;;;;;5096246;28;20040;-57
2020/12/11 05:00:11;;;;;;;23.17;2.75;;;10.30;99.90;;;;;;5087626;28;20110;-55
2020/12/11 05:02:40;;;;;;;26.67;2.95;;;10.30;99.90;;;;;;5087733;28;20031;-56
2020/12/11 05:05:06;;;;;;;33.50;3.63;;;10.30;99.90;;;;;;5090144;28;20090;-56
2020/12/11 05:07:31;;;;;;;27.55;2.88;;;10.30;99.90;;;;;;5086713;28;20373;-58
2020/12/11 05:09:57;;;;;;;25.38;2.33;;;10.40;99.90;;;;;;5090690;28;20032;-56
2020/12/11 05:12:23;;;;;;;24.88;2.70;;;10.40;99.90;;;;;;5091624;28;20069;-56
2020/12/11 05:14:55;;;;;;;24.20;3.10;;;10.40;99.90;;;;;;5090861;28;20204;-57
2020/12/11 05:17:26;;;;;;;27.02;2.95;;;10.40;99.90;;;;;;5091104;28;20020;-52
2020/12/11 05:19:55;;;;;;;23.13;3.72;;;10.40;99.90;;;;;;5090666;28;20044;-56
2020/12/11 05:22:22;;;;;;;22.17;2.70;;;10.30;99.90;;;;;;5055894;28;1012428;-57
2020/12/11 05:24:53;;;;;;;42.10;3.83;;;10.40;99.90;;;;;;5091850;28;20500;-56
2020/12/11 05:27:39;;;;;;;38.80;3.67;;;10.40;99.90;;;;;;5073346;28;20135;-57
2020/12/11 05:30:07;;;;;;;28.75;3.65;;;10.40;99.90;;;;;;5091453;28;20624;-57
2020/12/11 05:32:34;;;;;;;32.53;5.05;;;10.40;99.90;;;;;;5084542;28;20032;-56
2020/12/11 05:35:00;;;;;;;37.78;4.80;;;10.40;99.90;;;;;;5091099;28;20031;-57
2020/12/11 05:37:25;;;;;;;28.00;3.28;;;10.40;99.90;;;;;;5091504;28;20036;-57
2020/12/11 05:39:51;;;;;;;52.03;4.95;;;10.40;99.90;;;;;;5091335;28;20047;-59
2020/12/11 05:42:16;;;;;;;20.95;3.38;;;10.50;99.90;;;;;;5091471;28;20822;-57
2020/12/11 05:44:42;;;;;;;36.83;3.65;;;10.50;99.90;;;;;;5091167;28;20032;-57
2020/12/11 05:47:25;;;;;;;30.23;3.33;;;10.50;99.90;;;;;;5088067;28;20036;-58
2020/12/11 05:49:51;;;;;;;44.73;3.40;;;10.50;99.90;;;;;;5083317;28;20047;-54
2020/12/11 05:52:24;;;;;;;21.98;2.53;;;10.50;99.90;;;;;;5091176;28;20264;-57
2020/12/11 05:54:54;;;;;;;34.67;3.28;;;10.50;99.90;;;;;;5110331;28;20065;-55
2020/12/11 05:57:22;;;;;;;24.15;2.80;;;10.60;99.90;;;;;;5094621;28;20060;-57
2020/12/11 05:59:47;;;;;;;33.38;3.25;;;10.60;99.90;;;;;;5081757;28;20035;-58
2020/12/11 06:02:17;;;;;;;32.35;3.67;;;10.60;99.90;;;;;;5078944;28;20036;-58
2020/12/11 06:04:44;;;;;;;28.40;2.63;;;10.60;99.90;;;;;;5088136;28;20103;-58
2020/12/11 06:07:14;;;;;;;19.50;2.75;;;10.70;99.90;;;;;;5086227;28;20045;-58
2020/12/11 06:09:42;;;;;;;26.00;3.30;;;10.70;99.90;;;;;;5079564;28;20525;-57
2020/12/11 06:12:10;;;;;;;29.33;3.03;;;10.70;99.90;;;;;;5086792;28;20055;-56
2020/12/11 06:14:42;;;;;;;30.23;4.13;;;10.70;99.90;;;;;;5070043;28;20029;-58
2020/12/11 06:17:08;;;;;;;31.33;3.42;;;10.70;99.90;;;;;;5069241;28;20037;-56
2020/12/11 06:19:37;;;;;;;24.60;3.47;;;10.70;99.90;;;;;;5070288;28;20530;-55
2020/12/11 06:22:05;;;;;;;38.03;3.53;;;10.80;99.90;;;;;;5089138;28;20083;-55
2020/12/11 06:24:31;;;;;;;16.77;3.00;;;10.80;99.90;;;;;;5089251;28;20047;-58
2020/12/11 06:27:01;;;;;;;31.48;3.78;;;10.80;99.90;;;;;;5086717;28;20385;-58
2020/12/11 06:29:30;;;;;;;25.02;3.53;;;10.90;99.90;;;;;;5078896;28;20485;-57
2020/12/11 06:31:56;;;;;;;32.53;3.38;;;10.80;99.90;;;;;;5087563;28;20115;-57
2020/12/11 06:34:24;;;;;;;38.08;3.42;;;10.90;99.90;;;;;;5083289;28;20107;-58
2020/12/11 06:36:54;;;;;;;28.15;3.30;;;10.90;99.90;;;;;;5088776;28;20038;-57
2020/12/11 06:39:38;;;;;;;28.65;3.40;;;10.90;99.90;;;;;;5068970;28;20489;-57
2020/12/11 06:42:06;;;;;;;34.60;3.33;;;11.00;99.90;;;;;;5068641;28;20470;-57
2020/12/11 06:44:32;;;;;;;32.60;3.33;;;11.00;99.90;;;;;;5068076;28;20155;-58
2020/12/11 06:47:09;;;;;;;33.17;3.40;;;11.00;99.90;;;;;;5069155;28;20733;-57
2020/12/11 06:49:36;;;;;;;39.40;3.63;;;11.00;99.90;;;;;;5069178;28;20029;-57
2020/12/11 06:52:01;;;;;;;47.17;4.28;;;10.90;99.90;;;;;;5068435;28;20051;-57
2020/12/11 06:54:27;;;;;;;37.72;3.65;;;10.90;99.90;;;;;;5078284;28;20454;-56
2020/12/11 06:56:57;;;;;;;27.48;4.25;;;10.90;99.90;;;;;;5081432;28;20526;-58
2020/12/11 06:59:25;;;;;;;38.20;4.35;;;10.80;99.90;;;;;;5085129;28;20028;-56
2020/12/11 07:02:09;;;;;;;47.65;4.22;;;10.90;99.90;;;;;;5084982;28;20466;-55
2020/12/11 07:04:50;;;;;;;;;;;11.10;99.90;;;;;;5071087;28;20036;-57
2020/12/11 07:07:18;;;;;;;33.50;3.42;;;11.10;99.90;;;;;;5067951;28;19943;-57
2020/12/11 07:09:46;;;;;;;33.90;3.55;;;11.10;99.90;;;;;;5076010;28;20024;-55
2020/12/11 07:12:16;;;;;;;35.63;4.95;;;11.10;99.90;;;;;;5087865;28;20759;-56
2020/12/11 07:14:46;;;;;;;45.88;4.88;;;11.10;99.90;;;;;;5069062;28;20135;-57
2020/12/11 07:17:28;;;;;;;47.45;5.78;;;11.10;99.90;;;;;;5081933;28;20032;-55
2020/12/11 07:19:54;;;;;;;47.95;5.03;;;11.10;99.90;;;;;;5074429;28;20024;-55
2020/12/11 07:22:20;;;;;;;51.50;5.88;;;11.10;99.90;;;;;;5071370;28;20105;-55
2020/12/11 07:24:47;;;;;;;52.85;5.28;;;11.10;99.90;;;;;;5067067;28;20449;-57
2020/12/11 07:27:13;;;;;;;49.67;4.10;;;11.10;99.90;;;;;;5076265;28;20050;-56
2020/12/11 07:29:50;;;;;;;43.72;4.90;;;11.10;99.90;;;;;;5087110;28;20558;-54
2020/12/11 07:32:24;;;;;;;55.53;5.65;;;11.10;99.90;;;;;;5084454;28;20480;-55
2020/12/11 07:34:50;;;;;;;48.28;5.13;;;11.00;99.90;;;;;;5085139;28;20146;-56
2020/12/11 07:37:16;;;;;;;37.60;5.28;;;10.90;99.90;;;;;;5083444;28;20037;-54
2020/12/11 07:39:42;;;;;;;44.72;4.78;;;10.90;99.90;;;;;;5067431;28;20028;-56
2020/12/11 07:42:09;;;;;;;59.78;6.45;;;10.90;99.90;;;;;;5085286;28;20396;-55
2020/12/11 07:44:37;;;;;;;58.50;5.55;;;10.90;99.90;;;;;;5084222;28;20047;-57
2020/12/11 07:47:07;;;;;;;53.97;5.80;;;10.80;99.90;;;;;;5085274;28;20496;-56
2020/12/11 07:49:37;;;;;;;49.08;6.00;;;10.80;99.90;;;;;;5070792;28;20056;-56
2020/12/11 07:52:03;;;;;;;48.20;5.03;;;10.70;99.90;;;;;;5082487;28;20137;-56
2020/12/11 07:54:42;;;;;;;60.13;5.85;;;10.70;99.90;;;;;;5084297;28;20111;-55
2020/12/11 07:57:24;;;;;;;42.60;5.35;;;10.60;99.90;;;;;;5083112;28;20100;-55
2020/12/11 08:00:08;;;;;;;52.67;5.78;;;10.50;99.90;;;;;;5073902;28;20487;-55
2020/12/11 08:02:35;;;;;;;43.28;5.47;;;10.50;99.90;;;;;;5080814;28;20033;-55
2020/12/11 08:05:05;;;;;;;59.75;6.05;;;10.50;99.90;;;;;;5063313;28;20035;-57
2020/12/11 08:07:32;;;;;;;50.38;6.05;;;10.40;99.90;;;;;;5079673;28;20124;-56
2020/12/11 08:10:10;;;;;;;53.10;5.78;;;10.40;99.90;;;;;;5066474;28;20058;-55
2020/12/11 08:12:38;;;;;;;55.80;6.65;;;10.30;99.90;;;;;;5073660;28;20051;-56
2020/12/11 08:15:04;;;;;;;69.82;7.30;;;10.30;99.90;;;;;;5086061;28;20117;-56
2020/12/11 08:17:32;;;;;;;61.85;7.28;;;10.30;99.90;;;;;;5087058;28;20482;-55
2020/12/11 08:20:03;;;;;;;55.47;8.07;;;10.30;99.90;;;;;;5076998;28;20508;-57
2020/12/11 08:22:40;;;;;;;51.90;5.78;;;10.30;99.90;;;;;;5081932;28;20397;-55
2020/12/11 08:25:19;;;;;;;55.30;7.05;;;10.30;99.90;;;;;;5077705;28;20046;-55
2020/12/11 08:27:45;;;;;;;78.45;6.90;;;10.40;99.90;;;;;;5082540;28;20553;-54
2020/12/11 08:30:15;;;;;;;63.92;7.95;;;10.30;99.90;;;;;;5086403;28;20028;-56
2020/12/11 08:32:42;;;;;;;54.75;6.53;;;10.20;99.90;;;;;;5079083;28;20037;-54
2020/12/11 08:35:22;;;;;;;66.07;8.38;;;10.20;99.90;;;;;;5067089;28;20075;-53
2020/12/11 08:37:56;;;;;;;83.32;8.27;;;10.10;99.90;;;;;;5066500;28;20040;-57
2020/12/11 08:40:27;;;;;;;93.32;8.00;;;10.10;99.90;;;;;;5066579;28;20035;-54
2020/12/11 08:45:45;;;;;;;77.55;7.53;;;10.00;99.90;;;;;;5075913;28;20746;-56
2020/12/11 08:50:46;;;;;;;92.72;9.10;;;9.90;99.90;;;;;;5081700;28;20445;-54
2020/12/11 08:53:14;;;;;;;106.30;10.45;;;9.90;99.90;;;;;;5086587;28;20032;-53
2020/12/11 08:55:39;;;;;;;96.57;10.35;;;9.90;99.90;;;;;;5086434;28;20040;-56
2020/12/11 08:58:07;;;;;;;84.05;8.50;;;10.10;99.90;;;;;;5081810;28;20024;-56
2020/12/11 09:00:33;;;;;;;87.53;8.27;;;10.20;99.90;;;;;;5080983;28;20024;-54
2020/12/11 09:02:59;;;;;;;87.75;11.07;;;10.30;99.90;;;;;;5049472;28;20032;-52
2020/12/11 09:05:25;;;;;;;78.90;8.05;;;10.40;99.90;;;;;;5066538;28;20590;-54
2020/12/11 09:07:52;;;;;;;81.00;8.07;;;10.40;99.90;;;;;;5066212;28;20120;-53
2020/12/11 09:10:18;;;;;;;102.50;10.52;;;10.40;99.90;;;;;;5068465;28;20071;-54
2020/12/11 09:12:46;;;;;;;84.75;9.65;;;10.40;99.90;;;;;;5082492;28;20039;-56
2020/12/11 09:15:13;;;;;;;120.72;10.23;;;10.40;99.90;;;;;;5081250;28;20039;-53
2020/12/11 09:17:39;;;;;;;125.75;10.73;;;10.50;99.90;;;;;;5085751;28;20028;-55
2020/12/11 09:20:05;;;;;;;89.68;10.75;;;10.50;99.90;;;;;;5075101;28;20082;-54
2020/12/11 09:22:31;;;;;;;74.40;8.55;;;10.40;99.90;;;;;;5066092;28;20371;-56
2020/12/11 09:24:57;;;;;;;79.10;9.40;;;10.40;99.90;;;;;;5065970;28;20482;-54
2020/12/11 09:27:23;;;;;;;69.70;8.77;;;10.40;99.90;;;;;;5065682;28;20127;-55
2020/12/11 09:29:50;;;;;;;56.35;7.65;;;10.50;99.90;;;;;;5067774;28;20052;-57
2020/12/11 09:32:25;;;;;;;93.70;8.60;;;10.60;99.90;;;;;;5087398;28;20058;-56
2020/12/11 09:34:50;;;;;;;104.78;9.32;;;10.70;99.90;;;;;;5083550;28;20024;-56
2020/12/11 09:37:16;;;;;;;72.55;8.30;;;10.80;99.90;;;;;;5069445;28;20109;-54
2020/12/11 09:39:42;;;;;;;61.53;7.13;;;10.90;99.90;;;;;;5070006;28;20045;-55
2020/12/11 09:42:51;;;;;;;62.15;7.53;;;11.10;99.90;;;;;;5069555;28;20228;-55
2020/12/11 09:45:15;;;;;;;74.63;8.73;;;11.20;99.90;;;;;;5066982;28;20036;-54
2020/12/11 09:47:47;;;;;;;71.97;8.60;;;11.20;99.90;;;;;;5069802;28;20080;-55
2020/12/11 09:50:29;;;;;;;60.50;7.63;;;11.40;99.90;;;;;;5052077;28;20185;-55
2020/12/11 09:53:05;;;;;;;69.68;8.93;;;11.40;99.90;;;;;;5059810;28;20517;-55
2020/12/11 09:55:44;;;;;;;90.60;10.20;;;11.40;99.90;;;;;;5090034;28;20066;-56
2020/12/11 09:58:09;;;;;;;62.80;9.20;;;11.50;99.90;;;;;;5078437;28;20443;-51
2020/12/11 10:00:36;;;;;;;75.35;7.68;;;11.60;99.90;;;;;;5069693;28;20032;-53
2020/12/11 10:03:05;;;;;;;83.80;8.13;;;11.70;99.90;;;;;;5069757;28;20393;-51
2020/12/11 10:05:31;;;;;;;72.32;8.32;;;11.80;99.90;;;;;;5051872;28;20181;-52
2020/12/11 10:07:56;;;;;;;75.07;7.78;;;11.90;99.90;;;;;;5069339;28;20178;-52
2020/12/11 10:10:22;;;;;;;68.55;8.48;;;11.90;99.90;;;;;;5069126;28;20028;-52
2020/12/11 10:12:48;;;;;;;61.33;8.68;;;11.90;99.90;;;;;;5069171;28;20082;-54
2020/12/11 10:15:20;;;;;;;80.68;8.50;;;12.00;99.90;;;;;;5068873;28;20028;-52
2020/12/11 10:17:46;;;;;;;81.45;8.57;;;11.90;99.90;;;;;;5068540;28;20020;-52
2020/12/11 10:20:18;;;;;;;67.43;9.05;;;11.90;99.90;;;;;;5069178;28;20059;-52
2020/12/11 10:22:48;;;;;;;72.32;8.07;;;11.90;99.90;;;;;;5069179;28;20232;-54
2020/12/11 10:25:14;;;;;;;65.75;7.47;;;11.90;99.90;;;;;;5068769;28;20036;-53
2020/12/11 10:27:40;;;;;;;66.53;8.68;;;11.90;99.90;;;;;;5069001;28;20048;-53
2020/12/11 10:30:05;;;;;;;70.30;7.90;;;11.90;99.90;;;;;;5069001;28;20029;-54
2020/12/11 10:32:32;;;;;;;63.10;7.95;;;12.00;99.90;;;;;;5068871;28;20089;-55
2020/12/11 10:34:57;;;;;;;74.60;8.77;;;12.00;99.90;;;;;;5068704;28;21127;-54
2020/12/11 10:37:23;;;;;;;66.25;8.93;;;12.10;99.90;;;;;;5068452;28;20029;-54
2020/12/11 10:39:49;;;;;;;78.30;8.43;;;12.10;99.90;;;;;;5068609;28;20387;-54
2020/12/11 10:42:16;;;;;;;66.10;9.35;;;12.20;99.90;;;;;;5068180;28;20079;-53
2020/12/11 10:44:41;;;;;;;89.15;10.40;;;12.20;99.90;;;;;;5068862;28;20058;-52
2020/12/11 10:47:08;;;;;;;85.95;10.80;;;12.30;99.90;;;;;;5068565;28;20040;-50
2020/12/11 10:49:33;;;;;;;67.68;9.20;;;12.40;99.90;;;;;;5068345;28;20024;-52
2020/12/11 10:51:59;;;;;;;65.30;9.15;;;12.40;99.90;;;;;;5053582;28;20118;-51
2020/12/11 10:54:27;;;;;;;55.65;8.85;;;12.50;99.90;;;;;;5068788;28;20104;-53
2020/12/11 10:56:54;;;;;;;69.82;9.60;;;12.50;99.90;;;;;;5070445;28;20488;-51
2020/12/11 10:59:20;;;;;;;74.50;9.13;;;12.50;99.90;;;;;;5069745;28;20037;-54
2020/12/11 11:01:45;;;;;;;78.72;9.00;;;12.40;99.90;;;;;;5069086;28;20036;-54
2020/12/11 11:04:11;;;;;;;78.97;10.05;;;12.20;99.90;;;;;;5068103;28;20109;-52
2020/12/11 11:11:44;;;;;;;76.07;8.90;;;12.00;99.90;;;;;;5068222;28;20086;-52
2020/12/11 11:29:40;;;;;;;59.70;7.47;;;11.80;99.90;;;;;;5067677;28;20458;-52
2020/12/11 11:32:06;;;;;;;60.38;7.25;;;11.80;99.90;;;;;;5067391;28;20074;-50
2020/12/11 11:34:32;;;;;;;63.78;7.38;;;11.80;99.90;;;;;;5067548;28;20033;-51
2020/12/11 11:36:58;;;;;;;48.47;6.70;;;11.80;99.90;;;;;;5058637;28;20024;-50
2020/12/11 11:39:23;;;;;;;59.17;7.28;;;11.70;99.90;;;;;;5067319;28;20082;-52
2020/12/11 11:41:54;;;;;;;52.75;7.60;;;11.70;99.90;;;;;;5067567;28;20481;-51
2020/12/11 11:46:50;;;;;;;46.53;6.53;;;11.80;99.90;;;;;;5049759;28;20040;-51
2020/12/11 11:49:21;;;;;;;53.08;7.15;;;11.90;99.90;;;;;;5067652;28;20335;-52
2020/12/11 11:54:45;;;;;;;63.97;7.93;;;12.10;99.90;;;;;;5032185;28;20052;-53
2020/12/11 11:57:11;;;;;;;61.03;7.35;;;12.30;99.90;;;;;;5066846;28;20540;-54
2020/12/11 11:59:36;;;;;;;68.63;9.25;;;12.30;99.90;;;;;;5066842;28;20032;-52
2020/12/11 12:02:02;;;;;;;76.93;9.70;;;12.30;99.90;;;;;;5066999;28;20040;-53
2020/12/11 12:04:28;;;;;;;67.47;10.82;;;12.30;99.90;;;;;;5066912;28;20037;-51
2020/12/11 12:06:55;;;;;;;70.60;9.75;;;12.30;99.90;;;;;;5066889;28;20107;-53
2020/12/11 12:09:21;;;;;;;64.88;9.10;;;12.50;99.90;;;;;;5048555;28;20436;-51
2020/12/11 12:11:47;;;;;;;80.22;10.63;;;12.60;99.90;;;;;;5067455;28;20069;-52
2020/12/11 12:14:12;;;;;;;82.60;9.60;;;12.70;99.90;;;;;;5066488;28;20378;-49
2020/12/11 12:16:40;;;;;;;72.95;9.93;;;12.80;99.90;;;;;;5066930;28;20482;-50
2020/12/11 12:19:10;;;;;;;81.78;10.38;;;12.80;99.90;;;;;;5066712;28;20089;-50
2020/12/11 12:29:35;;;;;;;73.88;10.13;;;13.70;99.90;;;;;;5087059;28;20552;-50
2020/12/11 12:32:10;;;;;;;75.57;10.05;;;13.80;99.90;;;;;;5072864;28;20112;-49
2020/12/11 12:44:51;;;;;;;81.32;10.60;;;12.90;99.90;;;;;;5048689;28;20032;-49
2020/12/11 12:47:17;;;;;;;81.75;9.57;;;12.70;99.90;;;;;;5066035;28;20044;-48
2020/12/11 12:49:42;;;;;;;86.07;10.98;;;12.50;99.90;;;;;;5051325;28;20040;-49
2020/12/11 12:52:11;;;;;;;103.50;13.35;;;12.40;99.90;;;;;;5069374;28;20028;-49
2020/12/11 12:54:37;;;;;;;86.57;11.18;;;12.40;99.90;;;;;;5066611;28;20597;-49
2020/12/11 12:57:06;;;;;;;86.20;12.23;;;12.40;99.90;;;;;;5076428;28;20035;-49
2020/12/11 13:04:58;;;;;;;74.40;10.23;;;12.40;99.90;;;;;;5086405;28;20024;-49
2020/12/11 13:07:23;;;;;;;67.97;10.35;;;12.50;99.90;;;;;;5079777;28;20489;-49
2020/12/11 13:09:52;;;;;;;72.13;8.95;;;12.60;99.90;;;;;;5052691;28;20044;-49
2020/12/11 13:12:18;;;;;;;65.47;8.68;;;12.70;99.90;;;;;;5070034;28;20041;-48
2020/12/11 13:14:43;;;;;;;61.50;9.18;;;12.70;99.90;;;;;;5070537;28;20074;-48
2020/12/11 13:17:09;;;;;;;79.40;10.25;;;12.80;99.90;;;;;;5070379;28;20631;-49
2020/12/11 13:19:35;;;;;;;91.22;11.40;;;13.10;99.90;;;;;;5070289;28;20024;-48
2020/12/11 13:27:23;;;;;;;76.78;10.43;;;13.60;99.90;;;;;;5069867;28;20075;-49
2020/12/11 13:29:49;;;;;;;73.35;9.68;;;13.50;99.90;;;;;;5069977;28;20063;-48
2020/12/11 13:32:14;;;;;;;72.50;9.57;;;13.50;99.90;;;;;;5070138;28;20032;-48
2020/12/11 13:34:40;;;;;;;66.78;9.68;;;13.40;99.90;;;;;;5052263;28;20029;-48
2020/12/11 13:37:06;;;;;;;56.85;8.73;;;13.40;99.90;;;;;;5070046;28;20390;-48
2020/12/11 13:39:32;;;;;;;74.85;10.82;;;13.10;99.90;;;;;;5069657;28;20039;-48
2020/12/11 13:41:57;;;;;;;64.20;10.35;;;13.00;99.90;;;;;;5070003;28;20059;-48